createdAt,value
2022-07-29T00:00:02.697Z,55
2022-07-29T00:20:03.097Z,57
2022-07-29T00:40:02.353Z,58
2022-07-29T01:00:02.621Z,58
2022-07-29T01:20:02.923Z,59
2022-07-29T01:40:02.211Z,60
2022-07-29T02:00:02.602Z,60
2022-07-29T02:20:03.008Z,61
2022-07-29T02:40:07.118Z,62
2022-07-29T03:00:02.381Z,62
2022-07-29T03:20:03.142Z,62
2022-07-29T03:40:02.712Z,63
2022-07-29T04:00:02.973Z,64
2022-07-29T04:20:02.431Z,64
2022-07-29T04:40:02.801Z,64
2022-07-29T05:00:07.973Z,63
2022-07-29T05:20:02.568Z,62
2022-07-29T05:40:02.942Z,62
2022-07-29T06:00:02.273Z,60
2022-07-29T06:20:02.709Z,60
2022-07-29T06:40:02.904Z,59
2022-07-29T07:00:02.076Z,56
2022-07-29T07:20:02.394Z,54
2022-07-29T07:40:02.707Z,54
2022-07-29T08:00:02.957Z,50
2022-07-29T08:20:03.099Z,44
2022-07-29T08:40:02.448Z,40
2022-07-29T09:00:11.947Z,39
2022-07-29T09:20:02.438Z,37
2022-07-29T09:40:02.784Z,37
2022-07-29T10:00:02.992Z,34
2022-07-29T10:20:02.373Z,32
2022-07-29T10:40:02.906Z,29
2022-07-29T11:00:02.899Z,29
2022-07-29T11:20:02.769Z,31
2022-07-29T11:40:02.941Z,31
2022-07-29T12:00:12.400Z,31
2022-07-29T12:20:02.703Z,31
2022-07-29T12:40:05.212Z,30
2022-07-29T13:00:02.586Z,31
2022-07-29T13:20:04.238Z,32
2022-07-29T13:40:02.626Z,33
2022-07-29T14:00:03.143Z,33
2022-07-29T14:20:02.480Z,33
2022-07-29T14:40:02.706Z,32
2022-07-29T15:00:03.061Z,32
2022-07-29T15:20:02.424Z,32
2022-07-29T15:40:02.903Z,32
2022-07-29T16:00:02.330Z,32
2022-07-29T16:20:02.928Z,32
2022-07-29T16:40:02.417Z,32
2022-07-29T17:00:02.595Z,32
2022-07-29T17:20:03.240Z,32
2022-07-29T17:40:02.537Z,32
2022-07-29T18:00:02.917Z,33
2022-07-29T18:20:02.953Z,34
2022-07-29T18:40:02.567Z,35
2022-07-29T19:00:02.999Z,36
2022-07-29T19:20:07.511Z,37
2022-07-29T19:40:03.087Z,38
2022-07-29T20:00:03.353Z,39
2022-07-29T20:20:03.087Z,40
2022-07-29T20:40:02.400Z,41
2022-07-29T21:00:02.817Z,42
2022-07-29T21:20:03.062Z,42
2022-07-29T21:40:02.525Z,43
2022-07-29T22:00:03.511Z,43
2022-07-29T22:20:02.417Z,44
2022-07-29T22:40:02.926Z,45
2022-07-29T23:00:07.157Z,45
2022-07-29T23:20:02.910Z,46
2022-07-29T23:40:02.145Z,47
